createdAt,value
2023-02-26T00:01:29.798Z,102337.31
2023-02-26T00:04:01.998Z,102342.59
2023-02-26T00:06:30.051Z,102344.34
2023-02-26T00:08:58.152Z,102340.81
2023-02-26T00:11:27.944Z,102337.25
2023-02-26T00:13:56.416Z,102340.81
2023-02-26T00:16:28.246Z,102353.09
2023-02-26T00:18:56.595Z,102353.09
2023-02-26T00:21:25.101Z,102358.38
2023-02-26T00:23:53.065Z,102346.97
2023-02-26T00:26:21.012Z,102353.97
2023-02-26T00:28:51.148Z,102361.94
2023-02-26T00:31:21.079Z,102363.69
2023-02-26T00:33:49.508Z,102357.50
2023-02-26T00:36:22.499Z,102368.09
2023-02-26T00:38:57.095Z,102372.47
2023-02-26T00:41:25.723Z,102375.16
2023-02-26T00:43:55.590Z,102377.78
2023-02-26T00:46:26.607Z,102376.03
2023-02-26T00:48:57.300Z,102374.28
2023-02-26T00:51:29.231Z,102373.41
2023-02-26T00:54:00.721Z,102380.47
2023-02-26T00:56:28.600Z,102384.88
2023-02-26T00:58:57.921Z,102377.84
2023-02-26T01:01:25.797Z,102380.50
2023-02-26T01:03:54.311Z,102384.91
2023-02-26T01:06:22.721Z,102367.28
2023-02-26T01:08:54.554Z,102391.94
2023-02-26T01:11:22.820Z,102386.63
2023-02-26T01:13:51.128Z,102391.03
2023-02-26T01:16:22.370Z,102394.56
2023-02-26T01:18:53.099Z,102386.66
2023-02-26T01:21:23.439Z,102378.72
2023-02-26T01:23:52.470Z,102383.97
2023-02-26T01:26:22.542Z,102375.19
2023-02-26T01:28:50.986Z,102383.13
2023-02-26T01:31:28.129Z,102378.72
2023-02-26T01:33:57.625Z,102394.59
2023-02-26T01:36:26.552Z,102395.47
2023-02-26T01:38:59.054Z,102403.41
2023-02-26T01:41:31.743Z,102406.91
2023-02-26T01:44:06.745Z,102410.44
2023-02-26T01:46:38.217Z,102394.63
2023-02-26T01:49:06.356Z,102410.44
2023-02-26T01:51:50.682Z,102415.75
2023-02-26T01:54:20.739Z,102422.81
2023-02-26T01:56:51.315Z,102424.53
2023-02-26T01:59:24.278Z,102428.09
2023-02-26T02:01:54.434Z,102424.53
2023-02-26T02:04:22.263Z,102418.41
2023-02-26T02:06:50.095Z,102423.66
2023-02-26T02:09:18.027Z,102429.84
2023-02-26T02:12:09.594Z,102430.72
2023-02-26T02:14:45.840Z,102421.91
2023-02-26T02:17:17.636Z,102427.19
2023-02-26T02:20:11.785Z,102420.13
2023-02-26T02:22:52.872Z,102416.63
2023-02-26T02:25:44.309Z,102421.91
2023-02-26T02:28:16.883Z,102419.25
2023-02-26T02:30:58.952Z,102414.00
2023-02-26T02:33:29.863Z,102423.66
2023-02-26T02:35:59.055Z,102415.75
2023-02-26T02:38:29.100Z,102417.50
2023-02-26T02:41:02.390Z,102419.25
2023-02-26T02:43:32.370Z,102419.28
2023-02-26T02:46:03.318Z,102418.38
2023-02-26T02:48:33.230Z,102416.63
2023-02-26T02:51:02.523Z,102412.22
2023-02-26T02:53:34.115Z,102416.63
2023-02-26T02:56:05.744Z,102427.19
2023-02-26T02:58:35.892Z,102419.28
2023-02-26T03:01:08.034Z,102430.72
2023-02-26T03:03:38.108Z,102423.66
2023-02-26T03:06:06.320Z,102422.78
2023-02-26T03:08:36.382Z,102416.63
2023-02-26T03:11:04.262Z,102417.53
2023-02-26T03:13:32.216Z,102428.06
2023-02-26T03:16:08.391Z,102417.53
2023-02-26T03:18:43.047Z,102422.78
2023-02-26T03:21:14.683Z,102423.69
2023-02-26T03:23:46.363Z,102416.63
2023-02-26T03:26:16.366Z,102418.38
2023-02-26T03:28:46.569Z,102412.22
2023-02-26T03:31:18.161Z,102418.41
2023-02-26T03:33:51.539Z,102430.72
2023-02-26T03:36:20.591Z,102432.47
2023-02-26T03:38:51.284Z,102443.03
2023-02-26T03:41:22.622Z,102443.94
2023-02-26T03:43:52.240Z,102420.16
2023-02-26T03:46:26.238Z,102444.81
2023-02-26T03:48:54.405Z,102448.31
2023-02-26T03:51:22.273Z,102447.47
2023-02-26T03:53:51.886Z,102440.41
2023-02-26T03:56:21.618Z,102443.06
2023-02-26T03:58:49.503Z,102451.00
2023-02-26T04:01:19.270Z,102456.28
2023-02-26T04:03:50.774Z,102456.25
2023-02-26T04:06:20.398Z,102475.63
2023-02-26T04:08:48.337Z,102472.09
2023-02-26T04:11:17.752Z,102460.66
2023-02-26T04:13:45.646Z,102475.63
2023-02-26T04:16:13.559Z,102482.69
2023-02-26T04:18:42.543Z,102487.06
2023-02-26T04:21:13.833Z,102487.09
2023-02-26T04:23:41.691Z,102482.69
2023-02-26T04:26:09.531Z,102485.31
2023-02-26T04:28:37.985Z,102487.97
2023-02-26T04:31:06.171Z,102492.38
2023-02-26T04:33:34.289Z,102493.25
2023-02-26T04:36:02.887Z,102505.59
2023-02-26T04:38:32.111Z,102497.63
2023-02-26T04:40:59.979Z,102487.91
2023-02-26T04:43:27.886Z,102507.34
2023-02-26T04:45:55.817Z,102511.75
2023-02-26T04:48:23.687Z,102513.47
2023-02-26T04:50:51.654Z,102509.91
2023-02-26T04:53:19.489Z,102512.63
2023-02-26T04:55:51.381Z,102516.97
2023-02-26T04:58:20.191Z,102514.31
2023-02-26T05:00:49.763Z,102515.19
2023-02-26T05:03:17.645Z,102526.63
2023-02-26T05:05:45.597Z,102519.59
2023-02-26T05:08:13.473Z,102516.06
2023-02-26T05:10:41.407Z,102523.97
2023-02-26T05:13:10.690Z,102526.63
2023-02-26T05:15:38.572Z,102536.28
2023-02-26T05:18:06.552Z,102531.91
2023-02-26T05:20:34.449Z,102537.16
2023-02-26T05:23:02.300Z,102529.25
2023-02-26T05:25:30.270Z,102539.81
2023-02-26T05:27:58.184Z,102535.41
2023-02-26T05:30:27.445Z,102540.72
2023-02-26T05:32:55.704Z,102544.22
2023-02-26T05:35:23.616Z,102545.97
2023-02-26T05:37:51.507Z,102545.97
2023-02-26T05:40:19.540Z,102549.50
2023-02-26T05:42:47.404Z,102555.66
2023-02-26T05:45:15.337Z,102561.81
2023-02-26T05:47:44.567Z,102560.03
2023-02-26T05:50:13.330Z,102561.81
2023-02-26T05:52:41.209Z,102542.44
2023-02-26T05:55:10.546Z,102562.72
2023-02-26T05:57:38.436Z,102564.44
2023-02-26T06:00:07.456Z,102572.41
2023-02-26T06:02:35.314Z,102550.31
2023-02-26T06:05:05.048Z,102581.19
2023-02-26T06:07:33.005Z,102577.66
2023-02-26T06:10:00.881Z,102590.88
2023-02-26T06:12:28.750Z,102597.91
2023-02-26T06:14:56.588Z,102591.78
2023-02-26T06:17:24.462Z,102595.31
2023-02-26T06:19:52.969Z,102595.28
2023-02-26T06:22:22.199Z,102607.63
2023-02-26T06:24:50.076Z,102603.22
2023-02-26T06:27:17.933Z,102608.50
2023-02-26T06:29:45.806Z,102614.66
2023-02-26T06:32:13.805Z,102624.34
2023-02-26T06:34:41.847Z,102612.00
2023-02-26T06:37:09.702Z,102612.88
2023-02-26T06:39:38.931Z,102615.47
2023-02-26T06:42:06.900Z,102619.84
2023-02-26T06:44:34.860Z,102631.31
2023-02-26T06:47:02.696Z,102637.44
2023-02-26T06:49:30.604Z,102637.41
2023-02-26T06:51:58.442Z,102629.50
2023-02-26T06:54:26.290Z,102629.47
2023-02-26T06:56:57.748Z,102642.69
2023-02-26T06:59:25.685Z,102637.38
2023-02-26T07:01:53.632Z,102641.75
2023-02-26T07:04:21.520Z,102645.25
2023-02-26T07:06:49.471Z,102648.75
2023-02-26T07:09:19.843Z,102645.22
2023-02-26T07:11:48.327Z,102650.50
2023-02-26T07:14:17.635Z,102653.97
2023-02-26T07:16:45.540Z,102660.13
2023-02-26T07:19:13.455Z,102666.25
2023-02-26T07:21:41.346Z,102670.63
2023-02-26T07:24:09.915Z,102676.78
2023-02-26T07:26:37.742Z,102679.41
2023-02-26T07:29:05.702Z,102682.06
2023-02-26T07:31:35.184Z,102673.22
2023-02-26T07:34:03.403Z,102671.44
2023-02-26T07:36:31.244Z,102680.22
2023-02-26T07:38:59.169Z,102684.63
2023-02-26T07:41:27.056Z,102689.88
2023-02-26T07:43:55.059Z,102667.81
2023-02-26T07:46:22.980Z,102693.47
2023-02-26T07:48:52.385Z,102683.75
2023-02-26T07:51:20.459Z,102701.44
2023-02-26T07:53:48.366Z,102699.72
2023-02-26T07:56:16.243Z,102705.03
2023-02-26T07:58:44.125Z,102702.47
2023-02-26T08:01:12.105Z,102696.34
2023-02-26T08:03:39.994Z,102706.16
2023-02-26T08:06:10.086Z,102704.41
2023-02-26T08:08:38.043Z,102713.28
2023-02-26T08:11:06.006Z,102716.88
2023-02-26T08:13:33.921Z,102730.13
2023-02-26T08:16:01.941Z,102703.69
2023-02-26T08:18:29.822Z,102728.47
2023-02-26T08:20:57.870Z,102744.34
2023-02-26T08:23:27.812Z,102740.84
2023-02-26T08:26:01.680Z,102747.91
2023-02-26T08:28:29.950Z,102745.28
2023-02-26T08:30:57.984Z,102752.34
2023-02-26T08:33:26.433Z,102747.94
2023-02-26T08:35:55.806Z,102755.94
2023-02-26T08:38:23.637Z,102759.44
2023-02-26T08:40:53.685Z,102758.59
2023-02-26T08:43:21.655Z,102762.13
2023-02-26T08:45:49.761Z,102753.31
2023-02-26T08:48:17.659Z,102772.75
2023-02-26T08:50:45.542Z,102764.78
2023-02-26T08:53:13.447Z,102771.88
2023-02-26T08:55:41.308Z,102768.34
2023-02-26T08:58:10.684Z,102763.91
2023-02-26T09:00:38.521Z,102782.47
2023-02-26T09:03:06.445Z,102777.16
2023-02-26T09:05:34.412Z,102772.75
2023-02-26T09:08:02.312Z,102778.03
2023-02-26T09:10:30.403Z,102778.94
2023-02-26T09:12:58.300Z,102797.44
2023-02-26T09:15:27.583Z,102801.00
2023-02-26T09:17:55.492Z,102799.16
2023-02-26T09:20:23.537Z,102801.78
2023-02-26T09:22:51.438Z,102814.13
2023-02-26T09:25:19.494Z,102818.50
2023-02-26T09:27:47.410Z,102819.31
2023-02-26T09:30:15.689Z,102813.97
2023-02-26T09:32:44.982Z,102827.22
2023-02-26T09:35:12.942Z,102823.63
2023-02-26T09:37:41.223Z,102819.13
2023-02-26T09:40:12.213Z,102823.47
2023-02-26T09:42:49.642Z,102820.72
2023-02-26T09:45:23.185Z,102818.09
2023-02-26T09:47:52.955Z,102835.78
2023-02-26T09:50:23.008Z,102819.06
2023-02-26T09:52:56.584Z,102833.19
2023-02-26T09:55:28.573Z,102838.44
2023-02-26T09:57:58.991Z,102825.16
2023-02-26T10:00:31.852Z,102825.97
2023-02-26T10:03:04.729Z,102816.22
2023-02-26T10:05:35.520Z,102825.06
2023-02-26T10:08:05.840Z,102828.63
2023-02-26T10:10:36.847Z,102765.09
2023-02-26T10:13:04.787Z,102825.94
2023-02-26T10:15:35.740Z,102824.13
2023-02-26T10:18:07.715Z,102828.50
2023-02-26T10:20:39.727Z,102837.25
2023-02-26T10:23:18.811Z,102831.84
2023-02-26T10:25:48.911Z,102838.97
2023-02-26T10:28:32.135Z,102845.06
2023-02-26T10:31:03.529Z,102843.22
2023-02-26T10:33:37.188Z,102851.13
2023-02-26T10:36:09.747Z,102853.66
2023-02-26T10:38:37.680Z,102849.97
2023-02-26T10:41:08.152Z,102853.44
2023-02-26T10:43:38.707Z,102868.47
2023-02-26T10:46:20.152Z,102873.88
2023-02-26T10:48:56.701Z,102866.97
2023-02-26T10:51:26.082Z,102870.75
2023-02-26T10:53:55.808Z,102865.56
2023-02-26T10:56:25.229Z,102866.50
2023-02-26T10:58:54.443Z,102860.41
2023-02-26T11:01:23.610Z,102851.56
2023-02-26T11:03:56.504Z,102858.53
2023-02-26T11:06:25.466Z,102840.69
2023-02-26T11:08:54.450Z,102865.91
2023-02-26T11:11:40.822Z,102866.09
2023-02-26T11:14:09.574Z,102864.78
2023-02-26T11:16:37.522Z,102861.44
2023-02-26T11:19:06.759Z,102860.72
2023-02-26T11:21:38.064Z,102873.47
2023-02-26T11:24:07.805Z,102880.91
2023-02-26T11:26:37.119Z,102879.16
2023-02-26T11:29:05.359Z,102882.75
2023-02-26T11:31:33.909Z,102883.72
2023-02-26T11:34:04.970Z,102883.50
2023-02-26T11:36:37.015Z,102862.81
2023-02-26T11:39:06.479Z,102874.56
2023-02-26T11:41:37.286Z,102879.38
2023-02-26T11:44:06.805Z,102880.38
2023-02-26T11:46:35.725Z,102890.72
2023-02-26T11:49:03.658Z,102892.75
2023-02-26T11:51:31.566Z,102891.97
2023-02-26T11:54:01.615Z,102884.94
2023-02-26T11:56:34.234Z,102880.00
2023-02-26T11:59:03.664Z,102871.50
2023-02-26T12:01:31.585Z,102898.94
2023-02-26T12:04:00.672Z,102898.56
2023-02-26T12:06:28.640Z,102885.03
2023-02-26T12:08:56.568Z,102881.03
2023-02-26T12:11:49.737Z,102897.44
2023-02-26T12:14:48.581Z,102893.25
2023-02-26T12:17:27.399Z,102885.75
2023-02-26T12:19:58.385Z,102913.69
2023-02-26T12:22:37.525Z,102899.91
2023-02-26T12:25:18.065Z,102899.38
2023-02-26T12:28:06.975Z,102910.84
2023-02-26T12:30:45.509Z,102904.41
2023-02-26T12:33:19.844Z,102892.72
2023-02-26T12:35:53.118Z,102909.00
2023-02-26T12:38:22.824Z,102911.72
2023-02-26T12:41:23.011Z,102904.88
2023-02-26T12:43:52.651Z,102894.41
2023-02-26T12:46:37.366Z,102901.16
2023-02-26T12:49:30.374Z,102892.31
2023-02-26T12:52:12.366Z,102888.34
2023-02-26T12:54:47.626Z,102902.09
2023-02-26T12:57:35.038Z,102900.06
2023-02-26T13:00:25.979Z,102888.56
2023-02-26T13:03:25.891Z,102899.03
2023-02-26T13:06:03.453Z,102901.44
2023-02-26T13:08:33.570Z,102898.97
2023-02-26T13:11:09.063Z,102885.00
2023-02-26T13:13:55.156Z,102888.88
2023-02-26T13:16:32.114Z,102893.38
2023-02-26T13:19:03.962Z,102894.44
2023-02-26T13:21:33.643Z,102887.03
2023-02-26T13:24:05.514Z,102900.31
2023-02-26T13:26:33.502Z,102895.81
2023-02-26T13:29:03.310Z,102897.19
2023-02-26T13:31:34.727Z,102919.50
2023-02-26T13:34:05.909Z,102900.22
2023-02-26T13:36:35.353Z,102905.47
2023-02-26T13:39:28.658Z,102901.72
2023-02-26T13:42:00.183Z,102910.91
2023-02-26T13:44:33.476Z,102907.69
2023-02-26T13:47:18.919Z,102924.59
2023-02-26T13:49:53.152Z,102922.16
2023-02-26T13:52:25.596Z,102919.63
2023-02-26T13:54:53.518Z,102909.38
2023-02-26T13:57:44.434Z,102923.81
2023-02-26T14:00:26.565Z,102927.69
2023-02-26T14:02:59.768Z,102903.97
2023-02-26T14:06:02.490Z,102907.56
2023-02-26T14:08:51.811Z,102913.38
2023-02-26T14:11:46.984Z,102916.19
2023-02-26T14:14:20.407Z,102920.25
2023-02-26T14:16:51.288Z,102901.56
2023-02-26T14:19:24.678Z,102917.94
2023-02-26T14:22:00.102Z,102920.50
2023-02-26T14:24:36.959Z,102917.50
2023-02-26T14:27:23.849Z,102867.47
2023-02-26T14:30:05.167Z,102910.06
2023-02-26T14:32:37.058Z,102888.47
2023-02-26T14:35:10.263Z,102906.91
2023-02-26T14:37:38.387Z,102914.22
2023-02-26T14:40:08.971Z,102891.19
2023-02-26T14:42:38.379Z,102908.38
2023-02-26T14:45:14.283Z,102909.41
2023-02-26T14:47:42.210Z,102915.03
2023-02-26T14:50:12.916Z,102908.38
2023-02-26T14:52:50.427Z,102914.00
2023-02-26T14:55:27.761Z,102915.09
2023-02-26T14:58:04.508Z,102915.53
2023-02-26T15:00:37.578Z,102916.81
2023-02-26T15:03:24.988Z,102916.03
2023-02-26T15:06:11.378Z,102925.16
2023-02-26T15:08:51.603Z,102921.75
2023-02-26T15:11:31.820Z,102918.22
2023-02-26T15:14:24.276Z,102888.94
2023-02-26T15:16:57.198Z,102912.47
2023-02-26T15:19:43.618Z,102914.31
2023-02-26T15:22:23.574Z,102904.88
2023-02-26T15:24:52.907Z,102907.41
2023-02-26T15:27:21.282Z,102908.44
2023-02-26T15:29:50.450Z,102900.16
2023-02-26T15:32:23.362Z,102893.53
2023-02-26T15:34:57.325Z,102901.63
2023-02-26T15:37:28.294Z,102899.50
2023-02-26T15:39:56.244Z,102903.53
2023-02-26T15:42:26.888Z,102906.69
2023-02-26T15:45:01.324Z,102904.28
2023-02-26T15:47:29.398Z,102904.78
2023-02-26T15:49:58.189Z,102908.38
2023-02-26T15:52:28.282Z,102915.38
2023-02-26T15:54:57.773Z,102904.38
2023-02-26T15:57:26.005Z,102910.03
2023-02-26T15:59:57.947Z,102913.09
2023-02-26T16:02:28.503Z,102909.94
2023-02-26T16:04:56.500Z,102919.78
2023-02-26T16:07:24.933Z,102922.75
2023-02-26T16:09:57.955Z,102932.59
2023-02-26T16:12:37.924Z,102926.53
2023-02-26T16:15:07.846Z,102927.56
2023-02-26T16:17:40.477Z,102934.84
2023-02-26T16:20:13.454Z,102942.06
2023-02-26T16:22:45.904Z,102926.25
2023-02-26T16:25:18.297Z,102944.84
2023-02-26T16:27:51.244Z,102949.38
2023-02-26T16:30:22.731Z,102941.44
2023-02-26T16:32:51.451Z,102946.81
2023-02-26T16:35:22.799Z,102947.78
2023-02-26T16:37:52.981Z,102929.34
2023-02-26T16:40:25.759Z,102941.75
2023-02-26T16:43:01.592Z,102950.66
2023-02-26T16:45:49.274Z,102945.41
2023-02-26T16:48:19.557Z,102945.47
2023-02-26T16:50:48.509Z,102949.91
2023-02-26T16:53:18.389Z,102961.53
2023-02-26T16:55:50.751Z,102953.59
2023-02-26T16:58:25.507Z,102960.72
2023-02-26T17:00:58.170Z,102962.53
2023-02-26T17:03:26.964Z,102936.13
2023-02-26T17:05:59.882Z,102955.56
2023-02-26T17:08:34.041Z,102951.22
2023-02-26T17:11:06.768Z,102955.72
2023-02-26T17:13:40.984Z,102961.06
2023-02-26T17:16:17.181Z,102964.66
2023-02-26T17:18:47.620Z,102972.69
2023-02-26T17:21:18.567Z,102966.50
2023-02-26T17:23:48.149Z,102971.88
2023-02-26T17:26:21.266Z,102963.91
2023-02-26T17:28:51.079Z,102972.81
2023-02-26T17:31:21.895Z,102975.53
2023-02-26T17:33:52.371Z,102975.53
2023-02-26T17:36:24.360Z,102972.03
2023-02-26T17:38:54.938Z,102979.13
2023-02-26T17:41:29.235Z,102973.00
2023-02-26T17:43:57.191Z,102975.66
2023-02-26T17:46:25.092Z,102983.66
2023-02-26T17:48:53.002Z,102989.88
2023-02-26T17:51:20.867Z,102995.19
2023-02-26T17:53:48.758Z,102991.69
2023-02-26T17:56:28.127Z,102992.59
2023-02-26T17:58:56.372Z,102996.13
2023-02-26T18:01:24.725Z,102989.94
2023-02-26T18:03:54.657Z,102997.94
2023-02-26T18:06:22.895Z,102980.28
2023-02-26T18:08:50.803Z,102995.31
2023-02-26T18:11:20.021Z,102995.31
2023-02-26T18:13:49.305Z,103010.34
2023-02-26T18:16:19.064Z,103012.97
2023-02-26T18:18:49.662Z,102982.94
2023-02-26T18:21:21.605Z,103013.88
2023-02-26T18:23:52.524Z,103020.03
2023-02-26T18:26:23.875Z,103003.19
2023-02-26T18:28:58.363Z,103022.63
2023-02-26T18:31:37.154Z,103016.41
2023-02-26T18:34:08.016Z,103021.69
2023-02-26T18:36:38.174Z,103012.84
2023-02-26T18:39:10.472Z,103019.91
2023-02-26T18:41:44.099Z,103025.19
2023-02-26T18:44:15.985Z,103022.47
2023-02-26T18:46:47.575Z,103043.63
2023-02-26T18:49:18.747Z,103040.06
2023-02-26T18:51:48.063Z,103040.91
2023-02-26T18:54:16.139Z,103033.78
2023-02-26T18:56:44.136Z,103046.97
2023-02-26T18:59:13.354Z,103039.00
2023-02-26T19:01:41.452Z,103045.13
2023-02-26T19:04:09.414Z,103045.09
2023-02-26T19:06:37.306Z,103045.94
2023-02-26T19:09:05.861Z,103062.63
2023-02-26T19:11:36.426Z,103059.09
2023-02-26T19:14:04.329Z,103064.28
2023-02-26T19:16:38.090Z,103066.91
2023-02-26T19:19:06.719Z,103068.59
2023-02-26T19:21:36.330Z,103061.50
2023-02-26T19:24:05.091Z,103071.13
2023-02-26T19:26:33.249Z,103067.50
2023-02-26T19:29:01.267Z,103079.75
2023-02-26T19:31:29.536Z,103068.13
2023-02-26T19:33:59.051Z,103086.59
2023-02-26T19:36:27.621Z,103076.78
2023-02-26T19:38:55.555Z,103079.47
2023-02-26T19:41:23.418Z,103081.22
2023-02-26T19:43:51.471Z,103083.88
2023-02-26T19:46:19.440Z,103076.78
2023-02-26T19:48:47.313Z,103084.75
2023-02-26T19:51:16.515Z,103083.91
2023-02-26T19:53:44.410Z,103090.09
2023-02-26T19:56:12.665Z,103091.88
2023-02-26T19:58:40.566Z,103091.00
2023-02-26T20:01:08.419Z,103085.75
2023-02-26T20:03:36.430Z,103081.38
2023-02-26T20:06:04.468Z,103084.84
2023-02-26T20:08:33.840Z,103093.63
2023-02-26T20:11:02.274Z,103088.28
2023-02-26T20:13:30.374Z,103081.16
2023-02-26T20:15:58.628Z,103081.06
2023-02-26T20:18:27.583Z,103091.69
2023-02-26T20:20:56.727Z,103092.53
2023-02-26T20:23:24.587Z,103081.88
2023-02-26T20:25:55.271Z,103101.34
2023-02-26T20:28:23.316Z,103087.19
2023-02-26T20:30:51.278Z,103104.88
2023-02-26T20:33:19.407Z,103100.50
2023-02-26T20:35:47.458Z,103103.13
2023-02-26T20:38:15.728Z,103086.31
2023-02-26T20:40:43.841Z,103099.59
2023-02-26T20:43:13.092Z,103103.09
2023-02-26T20:45:41.055Z,103106.56
2023-02-26T20:48:09.332Z,103110.94
2023-02-26T20:50:37.563Z,103110.06
2023-02-26T20:53:05.575Z,103117.09
2023-02-26T20:55:33.535Z,103114.44
2023-02-26T20:58:01.503Z,103123.25
2023-02-26T21:00:30.869Z,103121.50
2023-02-26T21:02:58.746Z,103120.56
2023-02-26T21:05:26.640Z,103115.31
2023-02-26T21:07:56.363Z,103125.84
2023-02-26T21:10:24.258Z,103120.47
2023-02-26T21:12:52.833Z,103130.06
2023-02-26T21:15:20.959Z,103126.41
2023-02-26T21:17:50.246Z,103122.78
2023-02-26T21:20:18.651Z,103126.25
2023-02-26T21:22:46.586Z,103127.94
2023-02-26T21:25:14.425Z,103136.63
2023-02-26T21:27:42.296Z,103136.53
2023-02-26T21:30:11.982Z,103138.22
2023-02-26T21:32:40.169Z,103138.19
2023-02-26T21:35:11.394Z,103143.41
2023-02-26T21:37:39.297Z,103146.88
2023-02-26T21:40:09.433Z,103140.72
2023-02-26T21:42:37.349Z,103140.72
2023-02-26T21:45:05.846Z,103144.22
2023-02-26T21:47:34.038Z,103154.78
2023-02-26T21:50:01.940Z,103152.97
2023-02-26T21:52:31.210Z,103148.59
2023-02-26T21:54:59.050Z,103167.00
2023-02-26T21:57:28.878Z,103162.63
2023-02-26T21:59:57.358Z,103160.78
2023-02-26T22:02:25.316Z,103160.75
2023-02-26T22:04:53.294Z,103171.28
2023-02-26T22:07:21.387Z,103165.09
2023-02-26T22:09:51.813Z,103166.88
2023-02-26T22:12:21.181Z,103170.44
2023-02-26T22:14:49.395Z,103173.91
2023-02-26T22:17:17.262Z,103170.38
2023-02-26T22:19:45.177Z,103173.94
2023-02-26T22:22:13.073Z,103178.34
2023-02-26T22:24:41.335Z,103180.09
2023-02-26T22:27:10.590Z,103180.09
2023-02-26T22:29:39.215Z,103165.00
2023-02-26T22:32:07.531Z,103180.16
2023-02-26T22:34:36.796Z,103185.44
2023-02-26T22:37:04.662Z,103171.38
2023-02-26T22:39:33.220Z,103182.81
2023-02-26T22:42:01.133Z,103178.34
2023-02-26T22:44:30.794Z,103181.81
2023-02-26T22:46:58.966Z,103179.03
2023-02-26T22:49:27.180Z,103177.38
2023-02-26T22:51:55.067Z,103168.66
2023-02-26T22:54:22.974Z,103176.81
2023-02-26T22:56:51.002Z,103186.50
2023-02-26T22:59:18.862Z,103176.03
2023-02-26T23:01:48.376Z,103183.13
2023-02-26T23:04:16.668Z,103191.94
2023-02-26T23:06:44.531Z,103184.94
2023-02-26T23:09:12.450Z,103184.94
2023-02-26T23:11:40.369Z,103187.63
2023-02-26T23:14:08.283Z,103188.47
2023-02-26T23:16:36.118Z,103183.13
2023-02-26T23:19:05.420Z,103184.84
2023-02-26T23:21:33.374Z,103191.81
2023-02-26T23:24:01.284Z,103198.88
2023-02-26T23:26:29.279Z,103204.13
2023-02-26T23:28:57.201Z,103202.34
2023-02-26T23:31:25.775Z,103208.50
2023-02-26T23:33:53.910Z,103205.81
2023-02-26T23:36:23.187Z,103204.00
2023-02-26T23:38:51.040Z,103202.25
2023-02-26T23:41:19.965Z,103201.22
2023-02-26T23:43:47.838Z,103200.22
2023-02-26T23:46:15.768Z,103200.13
2023-02-26T23:48:43.659Z,103209.69
2023-02-26T23:51:11.611Z,103207.75
2023-02-26T23:53:40.861Z,103192.41
2023-02-26T23:56:09.182Z,103218.03
2023-02-26T23:58:37.086Z,103228.50
